Time;durP1;ratioP1;P1;durP2;ratioP2;P2;SDS_P1;SDS_P2;PMS_P1;PMS_P2;Temp;Humidity;BMP_temperature;BMP_pressure;BME280_temperature;BME280_humidity;BME280_pressure;Samples;Min_cycle;Max_cycle;Signal;HPM_P1;HPM_P2
2023/03/03 00:00:19;;;;;;;8.70;1.73;;;2.70;99.90;;;;;;5078192;28;20562;-72
2023/03/03 00:02:47;;;;;;;12.90;2.15;;;2.70;99.90;;;;;;5082952;28;20044;-72
2023/03/03 00:05:17;;;;;;;9.73;1.77;;;2.70;99.90;;;;;;5086618;28;20126;-71
2023/03/03 00:07:46;;;;;;;5.47;1.75;;;2.60;99.90;;;;;;5082003;28;20056;-72
2023/03/03 00:10:14;;;;;;;9.45;2.17;;;2.60;99.90;;;;;;5068944;28;20052;-70
2023/03/03 00:12:48;;;;;;;5.05;1.60;;;2.50;99.90;;;;;;5085583;28;20139;-72
2023/03/03 00:15:18;;;;;;;9.88;1.85;;;2.50;99.90;;;;;;5075090;28;20048;-71
2023/03/03 00:17:47;;;;;;;5.63;1.58;;;2.50;99.90;;;;;;5087659;28;20067;-71
2023/03/03 00:20:35;;;;;;;3.53;1.40;;;2.50;99.90;;;;;;5075448;28;20074;-72
2023/03/03 00:23:21;;;;;;;8.15;2.03;;;2.50;99.90;;;;;;5075649;28;20044;-71
2023/03/03 00:25:53;;;;;;;9.27;1.95;;;2.50;99.90;;;;;;5075222;28;20040;-71
2023/03/03 00:28:28;;;;;;;5.03;1.30;;;2.50;99.90;;;;;;5085545;28;20044;-71
2023/03/03 00:30:57;;;;;;;6.72;1.80;;;2.50;99.90;;;;;;5087564;28;20499;-71
2023/03/03 00:33:32;;;;;;;6.05;1.55;;;2.50;99.90;;;;;;5088011;28;20048;-72
2023/03/03 00:36:26;;;;;;;8.65;1.73;;;2.50;99.90;;;;;;5089578;28;20044;-71
2023/03/03 00:38:56;;;;;;;8.07;1.95;;;2.50;99.90;;;;;;5077546;28;20093;-70
2023/03/03 00:41:26;;;;;;;5.63;1.55;;;2.50;99.90;;;;;;5083422;28;20549;-70
2023/03/03 00:43:54;;;;;;;5.22;2.13;;;2.50;99.90;;;;;;5085951;28;20063;-70
2023/03/03 00:46:23;;;;;;;9.18;2.00;;;2.50;99.90;;;;;;5087797;28;20048;-71
2023/03/03 00:48:52;;;;;;;7.88;2.20;;;2.50;99.90;;;;;;5078799;28;20071;-72
2023/03/03 00:51:28;;;;;;;5.25;1.50;;;2.50;99.90;;;;;;5066952;28;20048;-70
2023/03/03 00:53:59;;;;;;;2.90;1.42;;;2.60;99.90;;;;;;5091320;28;20052;-70
2023/03/03 00:56:27;;;;;;;5.40;1.42;;;2.60;99.90;;;;;;5074023;28;20044;-72
2023/03/03 00:58:54;;;;;;;6.35;1.83;;;2.60;99.90;;;;;;5090789;28;20076;-71
2023/03/03 01:01:24;;;;;;;5.78;1.55;;;2.60;99.90;;;;;;5090272;28;20059;-71
2023/03/03 01:03:54;;;;;;;8.02;1.95;;;2.60;99.90;;;;;;5081192;28;20051;-70
2023/03/03 01:06:21;;;;;;;6.15;1.55;;;2.60;99.90;;;;;;5081108;28;20493;-71
2023/03/03 01:08:48;;;;;;;5.53;1.70;;;2.50;99.90;;;;;;5091671;28;20055;-71
2023/03/03 01:11:23;;;;;;;4.88;1.55;;;2.50;99.90;;;;;;5092639;28;20052;-72
2023/03/03 01:13:52;;;;;;;6.22;1.73;;;2.50;99.90;;;;;;5076549;28;20088;-73
2023/03/03 01:16:20;;;;;;;7.05;2.30;;;2.50;99.90;;;;;;5089542;28;20424;-71
2023/03/03 01:18:47;;;;;;;8.45;2.10;;;2.50;99.90;;;;;;5085623;28;20040;-72
2023/03/03 01:21:15;;;;;;;8.30;1.40;;;2.50;99.90;;;;;;5073173;28;20044;-70
2023/03/03 01:23:42;;;;;;;5.18;1.50;;;2.50;99.90;;;;;;5075756;28;20059;-72
2023/03/03 01:26:10;;;;;;;6.07;1.95;;;2.50;99.90;;;;;;5090181;28;20161;-77
2023/03/03 01:28:40;;;;;;;4.85;1.40;;;2.50;99.90;;;;;;5092162;28;20138;-77
2023/03/03 01:31:08;;;;;;;9.90;1.52;;;2.50;99.90;;;;;;5070552;28;20482;-78
2023/03/03 01:33:36;;;;;;;6.05;1.58;;;2.40;99.90;;;;;;5071394;28;20098;-77
2023/03/03 01:36:05;;;;;;;10.30;1.98;;;2.40;99.90;;;;;;5070693;28;20048;-79
2023/03/03 01:38:36;;;;;;;5.35;1.42;;;2.40;99.90;;;;;;5080626;28;20044;-77
2023/03/03 01:41:03;;;;;;;6.30;1.67;;;2.40;99.90;;;;;;5077926;28;20102;-78
2023/03/03 01:43:33;;;;;;;8.27;2.22;;;2.30;99.90;;;;;;5070455;28;20472;-78
2023/03/03 01:46:53;;;;;;;6.60;1.40;;;2.30;99.90;;;;;;5067864;28;20513;-78
2023/03/03 01:49:26;;;;;;;3.80;1.10;;;2.40;99.90;;;;;;5089762;28;20072;-78
2023/03/03 01:51:56;;;;;;;6.70;1.20;;;2.30;99.90;;;;;;5091004;28;20056;-77
2023/03/03 01:54:30;;;;;;;8.50;1.48;;;2.40;99.90;;;;;;5081592;28;20059;-75
2023/03/03 01:57:03;;;;;;;5.38;1.42;;;2.40;99.90;;;;;;5079625;28;20090;-77
2023/03/03 01:59:35;;;;;;;4.10;1.67;;;2.40;99.90;;;;;;5071199;28;20048;-78
2023/03/03 02:02:04;;;;;;;4.97;1.58;;;2.40;99.90;;;;;;5070698;28;20047;-76
2023/03/03 02:04:31;;;;;;;4.88;1.52;;;2.30;99.90;;;;;;5071101;28;20047;-77
2023/03/03 02:07:07;;;;;;;7.22;1.98;;;2.30;99.90;;;;;;5069425;28;20052;-78
2023/03/03 02:09:46;;;;;;;7.55;1.90;;;2.30;99.90;;;;;;5076962;28;20146;-78
2023/03/03 02:12:19;;;;;;;3.88;1.45;;;2.30;99.90;;;;;;5088007;28;20059;-78
2023/03/03 02:14:46;;;;;;;7.78;1.48;;;2.30;99.90;;;;;;5090568;28;20047;-77
2023/03/03 02:17:16;;;;;;;7.82;1.85;;;2.40;99.90;;;;;;5084911;28;20048;-79
2023/03/03 02:19:53;;;;;;;2.20;1.48;;;2.30;99.90;;;;;;5083736;28;20537;-78
2023/03/03 02:22:30;;;;;;;7.63;1.75;;;2.30;99.90;;;;;;5075711;28;20531;-77
2023/03/03 02:25:01;;;;;;;7.47;1.40;;;2.30;99.90;;;;;;5071662;28;20040;-77
2023/03/03 02:27:33;;;;;;;6.13;1.25;;;2.20;99.90;;;;;;5077066;28;20059;-77
2023/03/03 02:30:13;;;;;;;7.45;2.00;;;2.20;99.90;;;;;;5089730;28;20044;-77
2023/03/03 02:32:42;;;;;;;6.43;1.33;;;2.20;99.90;;;;;;5077926;28;20123;-78
2023/03/03 02:35:30;;;;;;;4.95;1.52;;;2.10;99.90;;;;;;5082248;28;20052;-78
2023/03/03 02:38:08;;;;;;;7.75;1.95;;;2.10;99.90;;;;;;5072727;28;20048;-77
2023/03/03 02:40:43;;;;;;;4.30;1.40;;;2.10;99.90;;;;;;5077493;28;20048;-73
2023/03/03 02:43:12;;;;;;;7.25;1.23;;;2.10;99.90;;;;;;5090808;28;20567;-72
2023/03/03 02:45:44;;;;;;;6.35;1.42;;;2.20;99.90;;;;;;5090150;28;20071;-72
2023/03/03 02:48:11;;;;;;;11.80;1.60;;;2.20;99.90;;;;;;5079061;28;20045;-72
2023/03/03 02:50:39;;;;;;;7.53;1.83;;;2.30;99.90;;;;;;5086308;28;20116;-72
2023/03/03 02:53:06;;;;;;;5.20;1.33;;;2.20;99.90;;;;;;5089203;28;20048;-72
2023/03/03 02:55:34;;;;;;;4.75;1.50;;;2.20;99.90;;;;;;5089653;28;20443;-72
2023/03/03 02:58:01;;;;;;;4.82;1.30;;;2.30;99.90;;;;;;5088176;28;20051;-72
2023/03/03 03:00:31;;;;;;;5.88;1.40;;;2.30;99.90;;;;;;5089654;28;20048;-72
2023/03/03 03:02:58;;;;;;;8.63;1.83;;;2.30;99.90;;;;;;5079130;28;20139;-72
2023/03/03 03:05:26;;;;;;;4.45;1.38;;;2.20;99.90;;;;;;5090464;28;20389;-73
2023/03/03 03:07:54;;;;;;;5.85;1.60;;;2.10;99.90;;;;;;5087603;28;20042;-72
2023/03/03 03:10:21;;;;;;;4.60;1.33;;;2.00;99.90;;;;;;5081564;28;20044;-71
2023/03/03 03:12:48;;;;;;;5.30;1.70;;;1.90;99.90;;;;;;5074193;28;20052;-72
2023/03/03 03:15:16;;;;;;;5.65;1.10;;;1.90;99.90;;;;;;5084129;28;20109;-72
2023/03/03 03:17:45;;;;;;;8.23;1.95;;;1.80;99.90;;;;;;5074588;28;20067;-72
2023/03/03 03:20:14;;;;;;;6.20;1.60;;;1.70;99.90;;;;;;5087036;28;20052;-71
2023/03/03 03:22:41;;;;;;;4.95;1.23;;;1.60;99.90;;;;;;5088817;28;20058;-72
2023/03/03 03:25:10;;;;;;;7.50;1.42;;;1.60;99.90;;;;;;5087661;28;20048;-71
2023/03/03 03:27:38;;;;;;;5.22;1.52;;;1.60;99.90;;;;;;5077592;28;20077;-71
2023/03/03 03:30:07;;;;;;;5.63;1.73;;;1.60;99.90;;;;;;5088642;28;20507;-70
2023/03/03 03:32:35;;;;;;;3.38;1.40;;;1.50;99.90;;;;;;5088587;28;20463;-72
2023/03/03 03:35:06;;;;;;;5.38;1.55;;;1.60;99.90;;;;;;5052964;28;20121;-72
2023/03/03 03:37:33;;;;;;;3.35;1.33;;;1.50;99.90;;;;;;5082553;28;20047;-72
2023/03/03 03:40:01;;;;;;;3.90;1.45;;;1.60;99.90;;;;;;5087725;28;20038;-72
2023/03/03 03:42:30;;;;;;;7.82;1.63;;;1.60;99.90;;;;;;5067860;28;20051;-71
2023/03/03 03:44:58;;;;;;;5.75;1.73;;;1.60;99.90;;;;;;5075267;28;20048;-72
2023/03/03 03:47:26;;;;;;;11.45;2.38;;;1.60;99.90;;;;;;5071954;28;20071;-71
2023/03/03 03:49:53;;;;;;;6.75;1.65;;;1.60;99.90;;;;;;5091663;28;20052;-72
2023/03/03 03:52:22;;;;;;;6.55;1.60;;;1.60;99.90;;;;;;5079834;28;20052;-72
2023/03/03 03:54:50;;;;;;;7.63;1.60;;;1.60;99.90;;;;;;5092489;28;20055;-70
2023/03/03 03:57:18;;;;;;;3.75;1.33;;;1.60;99.90;;;;;;5093923;28;20043;-73
2023/03/03 03:59:46;;;;;;;10.70;2.15;;;1.60;99.90;;;;;;5093405;28;20477;-73
2023/03/03 04:02:13;;;;;;;4.40;1.27;;;1.60;99.90;;;;;;5089362;28;20074;-71
2023/03/03 04:04:41;;;;;;;7.55;1.58;;;1.60;99.90;;;;;;5080897;28;20111;-71
2023/03/03 04:07:09;;;;;;;7.72;1.80;;;1.70;99.90;;;;;;5063744;28;20517;-70
2023/03/03 04:09:37;;;;;;;9.00;1.73;;;1.60;99.90;;;;;;5085726;28;20052;-70
2023/03/03 04:12:05;;;;;;;3.38;1.23;;;1.60;99.90;;;;;;5087011;28;20059;-71
2023/03/03 04:14:33;;;;;;;3.35;1.45;;;1.60;99.90;;;;;;5076662;28;20048;-70
2023/03/03 04:17:02;;;;;;;8.10;2.30;;;1.50;99.90;;;;;;5086671;28;20106;-72
2023/03/03 04:19:30;;;;;;;8.77;1.67;;;1.50;99.90;;;;;;5082396;28;20076;-73
2023/03/03 04:21:58;;;;;;;6.38;1.85;;;1.50;99.90;;;;;;5082061;28;20047;-74
2023/03/03 04:24:26;;;;;;;6.63;2.28;;;1.50;99.90;;;;;;5066931;28;20692;-74
2023/03/03 04:26:55;;;;;;;5.63;2.28;;;1.50;99.90;;;;;;5098071;28;20082;-74
2023/03/03 04:29:23;;;;;;;6.80;3.08;;;1.50;99.90;;;;;;5092711;28;20436;-73
2023/03/03 04:31:50;;;;;;;7.78;2.10;;;1.40;99.90;;;;;;5089258;28;20048;-71
2023/03/03 04:34:18;;;;;;;5.85;1.88;;;1.40;99.90;;;;;;5087800;28;20060;-71
2023/03/03 04:36:48;;;;;;;8.05;2.38;;;1.40;99.90;;;;;;5080542;28;20496;-71
2023/03/03 04:39:16;;;;;;;6.50;2.40;;;1.40;99.90;;;;;;5089584;28;20044;-73
2023/03/03 04:41:43;;;;;;;9.73;2.30;;;1.30;99.90;;;;;;5113347;28;20050;-73
2023/03/03 04:44:12;;;;;;;5.82;2.13;;;1.20;99.90;;;;;;5113162;28;20047;-71
2023/03/03 04:46:40;;;;;;;5.13;2.05;;;1.20;99.90;;;;;;5083816;28;20078;-79
2023/03/03 04:49:08;;;;;;;6.85;2.53;;;1.10;99.90;;;;;;5072902;28;20044;-77
2023/03/03 04:51:36;;;;;;;5.43;1.67;;;1.10;99.90;;;;;;5090293;28;20062;-78
2023/03/03 04:54:04;;;;;;;8.15;2.30;;;1.20;99.90;;;;;;5080363;28;20143;-75
2023/03/03 04:56:32;;;;;;;6.38;2.22;;;1.20;99.90;;;;;;5079809;28;20445;-77
2023/03/03 04:59:00;;;;;;;4.25;2.35;;;1.20;99.90;;;;;;5072837;28;20072;-72
2023/03/03 05:01:29;;;;;;;5.97;1.77;;;1.30;99.90;;;;;;5075998;28;20047;-79
2023/03/03 05:03:57;;;;;;;7.68;2.63;;;1.20;99.90;;;;;;5090740;28;20110;-76
2023/03/03 05:06:24;;;;;;;8.43;2.53;;;1.20;99.90;;;;;;5090862;28;20074;-80
2023/03/03 05:08:52;;;;;;;3.63;1.50;;;1.20;99.90;;;;;;5064764;28;20548;-82
2023/03/03 05:11:19;;;;;;;5.50;2.60;;;1.20;99.90;;;;;;5086547;28;20103;-75
2023/03/03 05:13:47;;;;;;;8.18;2.35;;;1.20;99.90;;;;;;5090276;28;20055;-76
2023/03/03 05:16:15;;;;;;;10.98;2.38;;;1.10;99.90;;;;;;5091735;28;21953;-76
2023/03/03 05:18:45;;;;;;;7.03;2.17;;;1.00;99.90;;;;;;5090918;28;20050;-83
2023/03/03 05:21:12;;;;;;;6.70;2.55;;;0.90;99.90;;;;;;5080677;28;20040;-79
2023/03/03 05:23:41;;;;;;;5.70;2.38;;;0.90;99.90;;;;;;5087311;28;20052;-74
2023/03/03 05:26:09;;;;;;;4.43;2.28;;;0.80;99.90;;;;;;5083575;28;20044;-75
2023/03/03 05:28:37;;;;;;;7.43;2.78;;;0.80;99.90;;;;;;5089675;28;20055;-78
2023/03/03 05:31:05;;;;;;;7.85;2.38;;;0.70;99.90;;;;;;5086943;28;20066;-76
2023/03/03 05:33:32;;;;;;;5.07;2.47;;;0.60;99.90;;;;;;5075037;28;20048;-76
2023/03/03 05:36:03;;;;;;;8.98;2.65;;;0.60;99.90;;;;;;5076522;28;20040;-76
2023/03/03 05:38:31;;;;;;;7.25;2.58;;;0.60;99.90;;;;;;5082528;28;20044;-82
2023/03/03 05:40:59;;;;;;;8.05;2.63;;;0.60;99.90;;;;;;5072892;28;20052;-82
2023/03/03 05:43:29;;;;;;;7.50;2.25;;;0.70;99.90;;;;;;5080103;28;20114;-82
2023/03/03 05:45:56;;;;;;;5.00;2.25;;;0.70;99.90;;;;;;5084435;28;20393;-76
2023/03/03 05:48:24;;;;;;;6.60;2.35;;;0.70;99.90;;;;;;5090540;28;20154;-83
2023/03/03 05:50:52;;;;;;;7.32;1.83;;;0.80;99.90;;;;;;5090101;28;20056;-86
2023/03/03 05:53:21;;;;;;;9.68;2.38;;;0.90;99.90;;;;;;5090929;28;20052;-85
2023/03/03 05:55:48;;;;;;;5.45;1.88;;;0.90;99.90;;;;;;5085329;28;20070;-83
2023/03/03 05:58:16;;;;;;;11.98;2.03;;;0.90;99.90;;;;;;5080152;28;20049;-84
2023/03/03 06:00:44;;;;;;;3.60;1.80;;;1.00;99.90;;;;;;5058924;28;20048;-77
2023/03/03 06:03:12;;;;;;;8.43;1.90;;;1.10;99.90;;;;;;5069757;28;20147;-75
2023/03/03 06:05:40;;;;;;;5.70;1.65;;;1.10;99.90;;;;;;5088203;28;20144;-75
2023/03/03 06:08:07;;;;;;;9.93;2.30;;;1.20;99.90;;;;;;5072455;28;20106;-76
2023/03/03 06:10:36;;;;;;;6.13;1.90;;;1.20;99.90;;;;;;5071921;28;20063;-73
2023/03/03 06:13:07;;;;;;;8.40;2.50;;;1.30;99.90;;;;;;5079418;28;20163;-74
2023/03/03 06:15:34;;;;;;;10.23;2.35;;;1.30;99.90;;;;;;5083890;28;20052;-74
2023/03/03 06:18:02;;;;;;;5.95;1.75;;;1.40;99.90;;;;;;5083490;28;20048;-80
2023/03/03 06:20:30;;;;;;;7.00;2.15;;;1.50;99.90;;;;;;5090313;28;20067;-75
2023/03/03 06:22:58;;;;;;;4.63;1.85;;;1.60;99.90;;;;;;5088969;28;20458;-75
2023/03/03 06:25:25;;;;;;;5.40;1.60;;;1.70;99.90;;;;;;5088323;28;20056;-76
2023/03/03 06:27:54;;;;;;;6.00;1.77;;;1.90;99.90;;;;;;5092243;28;20040;-74
2023/03/03 06:30:22;;;;;;;4.53;1.83;;;2.00;99.90;;;;;;5087790;28;20105;-76
2023/03/03 06:32:51;;;;;;;10.18;1.95;;;2.10;99.90;;;;;;5085403;28;20434;-76
2023/03/03 06:35:19;;;;;;;8.95;2.28;;;2.10;99.90;;;;;;5087661;28;20051;-76
2023/03/03 06:37:49;;;;;;;6.45;2.28;;;2.10;99.90;;;;;;5084612;28;20139;-74
2023/03/03 06:40:17;;;;;;;6.38;2.22;;;2.10;99.90;;;;;;5086438;28;20144;-78
2023/03/03 06:42:45;;;;;;;6.00;2.10;;;2.10;99.90;;;;;;5069749;28;20054;-75
2023/03/03 06:45:14;;;;;;;4.35;1.67;;;2.10;99.90;;;;;;5069567;28;20424;-75
2023/03/03 06:47:42;;;;;;;9.38;2.15;;;2.30;99.90;;;;;;5070978;28;20080;-76
2023/03/03 06:50:11;;;;;;;7.38;2.72;;;2.50;99.90;;;;;;5072442;28;20043;-76
2023/03/03 06:52:39;;;;;;;7.18;1.73;;;2.50;99.90;;;;;;5074646;28;20092;-75
2023/03/03 06:55:23;;;;;;;9.93;1.85;;;2.50;99.90;;;;;;5080650;28;20125;-75
2023/03/03 06:57:50;;;;;;;5.40;1.75;;;2.50;99.90;;;;;;5078251;28;20159;-73
2023/03/03 07:00:24;;;;;;;9.70;2.30;;;2.50;99.90;;;;;;5076823;28;20068;-74
2023/03/03 07:02:58;;;;;;;11.00;2.40;;;2.50;99.90;;;;;;5081295;28;20051;-75
2023/03/03 07:05:28;;;;;;;4.28;1.92;;;2.50;99.90;;;;;;5080958;28;20101;-76
2023/03/03 07:07:56;;;;;;;6.65;2.20;;;2.50;99.90;;;;;;5078155;28;20037;-77
2023/03/03 07:10:27;;;;;;;5.68;2.88;;;2.50;99.90;;;;;;5079278;28;20704;-74
2023/03/03 07:12:58;;;;;;;7.30;2.40;;;2.60;99.90;;;;;;5074898;28;20088;-74
2023/03/03 07:15:33;;;;;;;8.93;2.80;;;2.70;99.90;;;;;;5095817;28;20122;-75
2023/03/03 07:18:03;;;;;;;11.48;2.78;;;2.70;99.90;;;;;;5078470;28;20044;-74
2023/03/03 07:20:36;;;;;;;14.43;2.80;;;2.80;99.90;;;;;;5069529;28;20055;-74
2023/03/03 07:23:21;;;;;;;11.50;3.55;;;2.80;99.90;;;;;;5064246;28;20045;-74
2023/03/03 07:25:48;;;;;;;9.32;2.30;;;2.80;99.90;;;;;;5070729;28;20041;-76
2023/03/03 07:28:24;;;;;;;9.95;2.65;;;2.80;99.90;;;;;;5086693;28;20508;-74
2023/03/03 07:30:55;;;;;;;9.82;2.80;;;2.70;99.90;;;;;;5085711;28;20082;-75
2023/03/03 07:33:28;;;;;;;5.82;2.28;;;2.70;99.90;;;;;;5110936;28;20143;-75
2023/03/03 07:35:57;;;;;;;4.68;2.28;;;2.80;99.90;;;;;;5075026;28;20048;-75
2023/03/03 07:38:31;;;;;;;8.70;2.53;;;2.80;99.90;;;;;;5070912;28;20526;-74
2023/03/03 07:41:01;;;;;;;4.10;2.00;;;2.90;99.90;;;;;;5070361;28;20045;-74
2023/03/03 07:43:34;;;;;;;8.55;2.53;;;2.90;99.90;;;;;;5070485;28;20056;-73
2023/03/03 07:46:26;;;;;;;9.05;2.97;;;2.90;99.90;;;;;;5069906;28;20072;-74
2023/03/03 07:48:55;;;;;;;9.73;2.70;;;2.90;99.90;;;;;;5097142;28;20147;-73
2023/03/03 07:51:26;;;;;;;9.23;2.58;;;3.00;99.90;;;;;;5085750;28;20071;-73
2023/03/03 07:54:01;;;;;;;8.20;2.55;;;3.00;99.90;;;;;;5077887;28;20258;-74
2023/03/03 07:56:34;;;;;;;4.45;2.13;;;3.10;99.90;;;;;;5085958;28;20560;-74
2023/03/03 07:59:03;;;;;;;;;;;3.20;99.90;;;;;;5070557;28;20048;-73
2023/03/03 08:01:41;;;;;;;5.82;2.47;;;3.20;99.90;;;;;;5074422;28;19932;-74
2023/03/03 08:04:19;;;;;;;14.80;3.22;;;3.30;99.90;;;;;;5081021;28;20078;-74
2023/03/03 08:06:53;;;;;;;9.10;2.80;;;3.40;99.90;;;;;;5088353;28;20048;-75
2023/03/03 08:09:43;;;;;;;12.00;2.70;;;3.40;99.90;;;;;;5088742;28;20543;-76
2023/03/03 08:12:36;;;;;;;7.82;2.75;;;3.40;99.90;;;;;;5085737;28;20063;-76
2023/03/03 08:15:21;;;;;;;12.10;2.78;;;3.40;99.90;;;;;;5080530;28;20051;-74
2023/03/03 08:17:52;;;;;;;12.02;2.80;;;3.50;99.90;;;;;;5069909;28;20059;-75
2023/03/03 08:20:45;;;;;;;10.75;4.00;;;3.60;99.90;;;;;;5068525;28;20092;-75
2023/03/03 08:23:14;;;;;;;11.40;3.25;;;3.60;99.90;;;;;;5084788;28;20530;-75
2023/03/03 08:25:42;;;;;;;7.85;2.90;;;3.60;99.90;;;;;;5083422;28;20452;-75
2023/03/03 08:28:11;;;;;;;8.73;2.65;;;3.60;99.90;;;;;;5076068;28;20140;-75
2023/03/03 08:30:39;;;;;;;10.15;2.38;;;3.60;99.90;;;;;;5071015;28;20044;-75
2023/03/03 08:33:08;;;;;;;4.38;2.40;;;3.70;99.90;;;;;;5082006;28;20051;-76
2023/03/03 08:35:35;;;;;;;6.18;2.17;;;3.80;99.90;;;;;;5081199;28;20036;-75
2023/03/03 08:38:04;;;;;;;6.53;2.00;;;3.90;99.90;;;;;;5089516;28;20059;-75
2023/03/03 08:40:33;;;;;;;6.95;2.95;;;3.80;99.90;;;;;;5076593;28;20575;-76
2023/03/03 08:43:01;;;;;;;9.63;2.40;;;3.80;99.90;;;;;;5093580;28;20054;-75
2023/03/03 08:45:28;;;;;;;6.10;1.90;;;3.90;99.90;;;;;;5089957;28;20044;-74
2023/03/03 08:47:56;;;;;;;5.80;2.00;;;3.90;99.90;;;;;;5083185;28;20072;-74
2023/03/03 08:50:25;;;;;;;6.05;2.58;;;4.00;99.90;;;;;;5077339;28;20569;-74
2023/03/03 08:52:53;;;;;;;6.18;2.28;;;3.90;99.90;;;;;;5078394;28;20044;-73
2023/03/03 08:55:20;;;;;;;7.90;2.70;;;3.80;99.90;;;;;;5071421;28;20072;-76
2023/03/03 08:57:48;;;;;;;8.02;2.70;;;3.70;99.90;;;;;;5087843;28;20056;-75
2023/03/03 09:00:17;;;;;;;6.72;2.60;;;3.70;99.90;;;;;;5073152;28;20247;-77
2023/03/03 09:02:45;;;;;;;7.93;2.38;;;3.60;99.90;;;;;;5091653;28;20060;-76
2023/03/03 09:05:13;;;;;;;10.40;2.08;;;3.60;99.90;;;;;;5086193;28;20047;-78
2023/03/03 09:07:42;;;;;;;5.15;2.13;;;3.50;99.90;;;;;;5077567;28;20063;-79
2023/03/03 09:10:13;;;;;;;8.25;2.03;;;3.60;99.90;;;;;;5083718;28;20036;-77
2023/03/03 09:12:47;;;;;;;6.93;2.35;;;3.80;99.90;;;;;;5085491;28;20067;-76
2023/03/03 09:15:23;;;;;;;6.57;2.33;;;3.90;99.90;;;;;;5072210;28;20066;-74
2023/03/03 09:17:52;;;;;;;5.88;2.17;;;3.90;99.90;;;;;;5075916;28;20515;-75
2023/03/03 09:20:37;;;;;;;8.52;2.08;;;3.90;99.90;;;;;;5086383;28;20109;-74
2023/03/03 09:23:34;;;;;;;13.23;2.80;;;4.00;99.90;;;;;;5105137;28;20100;-74
2023/03/03 09:26:27;;;;;;;6.32;2.60;;;4.10;99.90;;;;;;5071235;28;20075;-73
2023/03/03 09:28:56;;;;;;;5.28;2.05;;;4.10;99.90;;;;;;5087650;28;20052;-75
2023/03/03 09:31:32;;;;;;;6.93;2.17;;;4.20;99.90;;;;;;5071976;28;20048;-75
2023/03/03 09:34:00;;;;;;;13.15;2.95;;;4.20;99.90;;;;;;5092825;28;20409;-75
2023/03/03 09:36:30;;;;;;;5.25;1.40;;;4.20;99.90;;;;;;5078048;28;20431;-76
2023/03/03 09:39:00;;;;;;;7.45;1.58;;;4.30;99.90;;;;;;5077177;28;20058;-75
2023/03/03 09:42:29;;;;;;;10.00;2.05;;;4.30;99.90;;;;;;5087410;28;20061;-75
2023/03/03 09:45:34;;;;;;;10.38;2.25;;;4.20;99.90;;;;;;5072315;28;20138;-74
2023/03/03 09:48:30;;;;;;;6.18;2.17;;;4.30;99.90;;;;;;5039151;28;20052;-75
2023/03/03 09:51:13;;;;;;;3.58;1.85;;;4.30;99.90;;;;;;5055842;28;20056;-75
2023/03/03 09:54:00;;;;;;;7.10;1.90;;;4.30;99.90;;;;;;5070740;28;20102;-76
2023/03/03 09:56:34;;;;;;;6.25;1.90;;;4.30;99.90;;;;;;5075092;28;20052;-75
2023/03/03 09:59:21;;;;;;;9.73;2.63;;;4.40;99.90;;;;;;5074981;28;20048;-75
2023/03/03 10:02:02;;;;;;;6.90;2.08;;;4.50;99.90;;;;;;5072151;28;20052;-74
2023/03/03 10:04:58;;;;;;;8.50;1.95;;;4.60;99.90;;;;;;5075989;28;20439;-73
2023/03/03 10:07:37;;;;;;;6.60;2.05;;;4.90;99.90;;;;;;5083671;28;20055;-75
2023/03/03 10:10:21;;;;;;;7.40;2.50;;;5.70;99.90;;;;;;5072246;28;20545;-74
2023/03/03 10:13:02;;;;;;;7.25;2.38;;;6.80;99.90;;;;;;5075253;28;20083;-76
2023/03/03 10:15:40;;;;;;;12.07;2.63;;;7.60;99.90;;;;;;5070462;28;20432;-73
2023/03/03 10:18:23;;;;;;;4.95;2.15;;;8.60;99.90;;;;;;5090897;28;20052;-73
2023/03/03 10:21:02;;;;;;;;;;;9.50;99.90;;;;;;5089823;28;20052;-73
2023/03/03 10:23:55;;;;;;;6.75;2.78;;;10.00;99.90;;;;;;5111948;28;19927;-77
2023/03/03 10:26:56;;;;;;;5.13;2.38;;;10.80;99.60;;;;;;5111034;28;20469;-77
2023/03/03 10:29:32;;;;;;;5.10;2.10;;;11.90;94.90;;;;;;5092559;28;20070;-77
2023/03/03 10:32:30;;;;;;;4.13;1.67;;;12.40;91.00;;;;;;5080186;28;20056;-76
2023/03/03 10:35:19;;;;;;;3.20;1.45;;;12.30;88.50;;;;;;5075652;28;20048;-76
2023/03/03 10:38:00;;;;;;;8.68;2.58;;;12.50;84.90;;;;;;5071833;28;20048;-78
2023/03/03 10:40:35;;;;;;;3.75;2.15;;;12.60;83.40;;;;;;5086583;28;20490;-77
2023/03/03 10:43:31;;;;;;;7.72;2.00;;;12.30;83.30;;;;;;5090318;28;20052;-78
2023/03/03 10:46:53;;;;;;;4.93;1.95;;;12.10;82.20;;;;;;5082462;28;20047;-78
2023/03/03 10:49:39;;;;;;;2.75;1.50;;;11.90;81.40;;;;;;5083803;28;20143;-79
2023/03/03 10:52:32;;;;;;;3.17;1.38;;;11.30;82.70;;;;;;5082566;28;20048;-79
2023/03/03 10:55:27;;;;;;;4.37;1.67;;;11.00;83.30;;;;;;5071491;28;20053;-77
2023/03/03 10:58:25;;;;;;;5.43;1.65;;;10.90;84.10;;;;;;5080717;28;20056;-78
2023/03/03 11:01:06;;;;;;;7.28;1.70;;;10.70;84.30;;;;;;5085684;28;20142;-82
2023/03/03 11:04:07;;;;;;;6.78;2.60;;;10.40;85.20;;;;;;5079730;28;20055;-84
2023/03/03 11:06:45;;;;;;;4.45;1.80;;;10.10;86.30;;;;;;5066086;28;20116;-84
2023/03/03 11:09:36;;;;;;;3.13;2.00;;;9.80;86.90;;;;;;5072688;28;20047;-83
2023/03/03 11:12:19;;;;;;;9.60;2.25;;;9.60;88.90;;;;;;5073681;28;20455;-81
2023/03/03 11:15:00;;;;;;;2.67;1.25;;;9.40;90.00;;;;;;5086733;28;20437;-82
2023/03/03 11:17:41;;;;;;;3.90;1.42;;;9.30;90.00;;;;;;5080521;28;20067;-80
2023/03/03 11:20:21;;;;;;;3.90;1.30;;;9.20;88.60;;;;;;5090451;28;20085;-81
2023/03/03 11:22:58;;;;;;;4.28;1.45;;;8.70;90.00;;;;;;5106234;28;20423;-81
2023/03/03 11:25:30;;;;;;;4.72;1.67;;;8.10;90.90;;;;;;5077874;28;20051;-80
2023/03/03 11:28:25;;;;;;;2.55;1.02;;;7.90;92.10;;;;;;5071343;28;20056;-79
2023/03/03 11:31:11;;;;;;;3.30;1.23;;;7.80;92.60;;;;;;5069714;28;20053;-80
2023/03/03 11:33:50;;;;;;;6.22;1.17;;;7.80;93.30;;;;;;5075828;28;20048;-82
2023/03/03 11:36:23;;;;;;;3.85;1.20;;;8.00;93.90;;;;;;5090333;28;20524;-76
2023/03/03 11:38:57;;;;;;;6.47;1.23;;;8.20;93.30;;;;;;5089607;28;20056;-78
2023/03/03 11:41:36;;;;;;;3.92;1.42;;;8.60;93.20;;;;;;5089896;28;20261;-76
2023/03/03 11:44:20;;;;;;;5.85;1.67;;;9.20;92.50;;;;;;5088579;28;20058;-76
2023/03/03 11:46:55;;;;;;;3.80;1.80;;;9.50;91.60;;;;;;5090219;28;20063;-76
2023/03/03 11:49:29;;;;;;;4.18;1.50;;;9.90;91.10;;;;;;5070221;28;20063;-75
2023/03/03 11:52:14;;;;;;;4.93;1.70;;;10.70;89.10;;;;;;5087398;28;20044;-76
2023/03/03 11:54:51;;;;;;;5.65;1.35;;;11.70;85.40;;;;;;5070537;28;20048;-75
2023/03/03 11:57:24;;;;;;;5.05;2.05;;;12.70;80.40;;;;;;5087035;28;20052;-76
2023/03/03 12:00:08;;;;;;;3.58;1.42;;;13.60;74.30;;;;;;5088297;28;20052;-75
2023/03/03 12:03:10;;;;;;;4.90;2.33;;;14.50;71.20;;;;;;5089839;28;20407;-77
2023/03/03 12:05:50;;;;;;;3.25;1.63;;;15.00;68.40;;;;;;5092201;28;20056;-75
2023/03/03 12:08:42;;;;;;;3.72;1.90;;;15.10;66.40;;;;;;5074331;28;20060;-76
2023/03/03 12:11:16;;;;;;;3.85;2.08;;;15.90;64.00;;;;;;5087863;28;20071;-76
2023/03/03 12:13:57;;;;;;;4.20;1.73;;;16.30;61.70;;;;;;5094015;28;20701;-80
2023/03/03 12:16:47;;;;;;;2.50;1.60;;;16.00;60.40;;;;;;5094348;28;20056;-77
2023/03/03 12:19:33;;;;;;;3.60;0.93;;;15.90;59.20;;;;;;5086355;28;20098;-77
2023/03/03 12:22:24;;;;;;;3.65;1.50;;;15.10;59.60;;;;;;5078451;28;20479;-77
2023/03/03 12:25:05;;;;;;;3.92;1.60;;;14.40;61.20;;;;;;5084042;28;20146;-78
2023/03/03 12:27:43;;;;;;;2.30;1.20;;;14.70;61.30;;;;;;5079850;28;20512;-75
2023/03/03 12:30:23;;;;;;;2.83;1.42;;;15.10;61.00;;;;;;5085975;28;20159;-78
2023/03/03 12:33:17;;;;;;;3.45;1.23;;;15.60;59.80;;;;;;5078071;28;20048;-76
2023/03/03 12:35:59;;;;;;;2.70;1.20;;;16.00;58.60;;;;;;5084498;28;20048;-78
2023/03/03 12:38:38;;;;;;;3.80;1.90;;;15.90;58.20;;;;;;5083495;28;20052;-78
2023/03/03 12:41:12;;;;;;;5.75;3.67;;;15.50;58.10;;;;;;5078725;28;20048;-82
2023/03/03 12:44:00;;;;;;;5.65;3.53;;;15.30;58.40;;;;;;5087322;28;20371;-82
2023/03/03 12:46:41;;;;;;;4.38;2.28;;;15.10;58.30;;;;;;5080284;28;20493;-82
2023/03/03 12:49:08;;;;;;;3.80;3.38;;;14.50;59.70;;;;;;5074290;28;20044;-80
2023/03/03 12:51:55;;;;;;;1.85;1.27;;;14.00;61.00;;;;;;5080163;28;20046;-80
2023/03/03 12:54:52;;;;;;;3.28;1.63;;;13.50;62.30;;;;;;5081481;28;20079;-82
2023/03/03 12:57:31;;;;;;;4.97;1.40;;;13.30;63.90;;;;;;5079234;28;20452;-81
2023/03/03 13:00:23;;;;;;;4.90;2.00;;;12.40;66.30;;;;;;5086102;28;20075;-80
2023/03/03 13:03:05;;;;;;;7.30;5.45;;;12.10;68.10;;;;;;5074442;28;20516;-81
2023/03/03 13:05:50;;;;;;;8.23;6.72;;;12.00;68.50;;;;;;5081215;28;20052;-80
2023/03/03 13:08:52;;;;;;;4.38;2.20;;;11.70;70.30;;;;;;5081512;28;20553;-77
2023/03/03 13:11:40;;;;;;;2.28;1.40;;;11.40;71.30;;;;;;5080877;28;20053;-78
2023/03/03 13:14:25;;;;;;;3.53;1.95;;;11.80;71.30;;;;;;5072430;28;20052;-77
2023/03/03 13:17:05;;;;;;;2.85;1.20;;;12.50;69.50;;;;;;5073078;28;20068;-77
2023/03/03 13:19:40;;;;;;;5.50;1.52;;;12.50;68.60;;;;;;5083177;28;20056;-77
2023/03/03 13:22:18;;;;;;;2.10;1.38;;;13.00;68.30;;;;;;5080362;28;20032;-77
2023/03/03 13:25:00;;;;;;;3.15;1.67;;;13.40;67.00;;;;;;5081160;28;20055;-78
2023/03/03 13:27:37;;;;;;;2.80;1.20;;;13.50;66.30;;;;;;5090026;28;20519;-78
2023/03/03 13:30:17;;;;;;;2.53;1.20;;;13.40;66.00;;;;;;5086260;28;20054;-78
2023/03/03 13:32:52;;;;;;;2.60;1.20;;;13.20;67.10;;;;;;5090357;28;20052;-75